Time;durP1;ratioP1;P1;durP2;ratioP2;P2;SDS_P1;SDS_P2;PMS_P1;PMS_P2;Temp;Humidity;BMP_temperature;BMP_pressure;BME280_temperature;BME280_humidity;BME280_pressure;Samples;Min_cycle;Max_cycle;Signal;HPM_P1;HPM_P2
2023/05/24 00:01:08;;;;;;;5.57;4.30;;;;;;;17.19;59.74;94445.72;5069235;28;20194;-44
2023/05/24 00:03:38;;;;;;;5.47;4.27;;;;;;;17.18;59.81;94446.69;5069802;28;20191;-45
2023/05/24 00:06:05;;;;;;;7.47;4.80;;;;;;;17.15;59.98;94447.06;5068984;28;20214;-43
2023/05/24 00:08:34;;;;;;;4.60;4.20;;;;;;;17.13;60.16;94443.84;5069249;28;20186;-44
2023/05/24 00:11:01;;;;;;;6.43;4.80;;;;;;;17.07;60.04;94441.22;5070196;28;20190;-44
2023/05/24 00:13:28;;;;;;;5.47;4.23;;;;;;;17.08;60.02;94446.19;5074106;28;20209;-46
2023/05/24 00:15:54;;;;;;;5.40;4.40;;;;;;;17.07;60.00;94449.78;5069828;28;20183;-45
2023/05/24 00:18:21;;;;;;;5.97;4.10;;;;;;;17.03;60.36;94446.75;5069297;28;20199;-46
2023/05/24 00:20:48;;;;;;;8.87;4.50;;;;;;;17.03;60.25;94445.94;5069054;28;20201;-44
2023/05/24 00:23:15;;;;;;;5.97;4.27;;;;;;;17.01;60.15;94445.31;5069283;28;20251;-46
2023/05/24 00:25:43;;;;;;;6.67;4.93;;;;;;;16.95;60.43;94427.97;5073608;28;20190;-45
2023/05/24 00:28:10;;;;;;;6.87;4.73;;;;;;;16.99;60.39;94442.13;5070828;28;20222;-44
2023/05/24 00:30:36;;;;;;;5.70;4.23;;;;;;;16.96;60.48;94443.28;5069479;28;20187;-45
2023/05/24 00:33:03;;;;;;;5.60;4.07;;;;;;;16.92;60.48;94441.25;5069351;28;20259;-45
2023/05/24 00:35:30;;;;;;;8.53;3.90;;;;;;;16.86;60.33;94423.91;5069579;28;20196;-44
2023/05/24 00:37:56;;;;;;;6.70;4.10;;;;;;;16.91;60.43;94437.88;5068890;28;20194;-44
2023/05/24 00:40:23;;;;;;;5.70;4.50;;;;;;;16.89;60.54;94433.88;5069245;28;20190;-45
2023/05/24 00:42:52;;;;;;;5.40;4.00;;;;;;;16.87;60.63;94439.22;5068818;28;20221;-44
2023/05/24 00:45:19;;;;;;;4.17;3.77;;;;;;;16.85;60.77;94432.66;5069429;28;20584;-45
2023/05/24 00:47:46;;;;;;;6.60;4.63;;;;;;;16.82;60.85;94433.00;5068485;28;20186;-44
2023/05/24 00:50:15;;;;;;;4.60;3.97;;;;;;;16.80;60.70;94428.03;5068851;28;20197;-45
2023/05/24 00:52:43;;;;;;;5.17;4.63;;;;;;;16.77;60.78;94430.97;5068617;28;20670;-45
2023/05/24 00:55:10;;;;;;;4.20;3.80;;;;;;;16.75;60.94;94435.50;5069226;28;20183;-45
2023/05/24 00:57:37;;;;;;;4.50;4.10;;;;;;;16.73;60.91;94435.69;5068851;28;20190;-45
2023/05/24 01:00:07;;;;;;;4.97;4.53;;;;;;;16.70;61.12;94438.59;5068441;28;20190;-46
2023/05/24 01:02:34;;;;;;;8.23;4.37;;;;;;;16.68;61.00;94439.78;5068961;28;20311;-45
2023/05/24 01:05:01;;;;;;;7.20;4.70;;;;;;;16.65;61.08;94433.19;5069423;28;20202;-45
2023/05/24 01:07:37;;;;;;;5.97;4.77;;;;;;;16.66;61.17;94439.16;5073050;28;20229;-45
2023/05/24 01:10:12;;;;;;;6.63;4.50;;;;;;;16.64;61.30;94441.13;5072439;28;20210;-44
2023/05/24 01:12:51;;;;;;;6.53;4.30;;;;;;;16.61;61.36;94439.69;5072528;28;20182;-45
2023/05/24 01:15:24;;;;;;;6.13;4.10;;;;;;;16.56;61.49;94436.84;5072358;28;20514;-45
2023/05/24 01:18:00;;;;;;;4.93;3.73;;;;;;;16.53;61.53;94443.16;5072473;28;20190;-44
2023/05/24 01:20:30;;;;;;;4.87;4.23;;;;;;;16.33;61.59;94418.13;5072423;28;20679;-44
2023/05/24 01:23:29;;;;;;;6.27;4.17;;;;;;;16.51;61.74;94445.13;5071957;28;20301;-44
2023/05/24 01:26:19;;;;;;;4.70;4.20;;;;;;;16.50;61.82;94448.72;5072384;28;20197;-44
2023/05/24 01:28:48;;;;;;;5.37;3.83;;;;;;;16.34;61.75;94423.09;5066183;28;20273;-45
2023/05/24 01:31:17;;;;;;;5.10;4.60;;;;;;;16.46;61.77;94447.47;5072376;28;20186;-45
2023/05/24 01:33:44;;;;;;;4.60;3.87;;;;;;;16.45;61.86;94461.34;5072672;28;20191;-44
2023/05/24 01:36:11;;;;;;;5.67;4.27;;;;;;;16.44;61.89;94451.19;5072119;28;20202;-44
2023/05/24 01:38:39;;;;;;;5.47;4.10;;;;;;;16.17;61.89;94414.72;5075072;28;20190;-43
2023/05/24 01:41:15;;;;;;;5.60;4.33;;;;;;;16.42;61.84;94453.97;5072327;28;20792;-45
2023/05/24 01:43:53;;;;;;;5.53;4.03;;;;;;;16.20;62.07;94422.13;5072123;28;20225;-45
2023/05/24 01:46:36;;;;;;;6.03;4.80;;;;;;;16.39;62.18;94456.09;5072615;28;20284;-44
2023/05/24 01:49:11;;;;;;;6.93;4.10;;;;;;;16.36;62.26;94446.13;5072726;28;20221;-45
2023/05/24 01:51:44;;;;;;;4.90;4.30;;;;;;;16.32;62.18;94450.88;5072926;28;20229;-47
2023/05/24 01:54:13;;;;;;;4.23;3.67;;;;;;;16.32;62.22;94448.28;5073461;28;20197;-45
2023/05/24 01:56:42;;;;;;;5.53;4.50;;;;;;;16.30;62.52;94452.81;5076159;28;20715;-44
2023/05/24 01:59:12;;;;;;;4.67;4.27;;;;;;;16.28;62.54;94442.69;5080670;28;20190;-46
2023/05/24 02:01:40;;;;;;;10.33;4.27;;;;;;;16.27;62.53;94440.25;5080379;28;20197;-44
2023/05/24 02:04:07;;;;;;;5.77;4.13;;;;;;;16.23;62.58;94439.81;5080053;28;20243;-46
2023/05/24 02:06:34;;;;;;;4.90;4.33;;;;;;;16.20;62.69;94427.28;5081053;28;20218;-45
2023/05/24 02:09:01;;;;;;;4.83;4.40;;;;;;;16.21;62.82;94441.78;5080865;28;20448;-44
2023/05/24 02:11:28;;;;;;;4.73;3.90;;;;;;;16.20;62.81;94432.44;5080668;28;20232;-44
2023/05/24 02:13:55;;;;;;;6.87;4.23;;;;;;;16.20;62.85;94434.22;5074673;28;20206;-45
2023/05/24 02:16:23;;;;;;;4.33;3.93;;;;;;;16.17;62.90;94430.22;5070596;28;20198;-41
2023/05/24 02:18:50;;;;;;;5.33;4.27;;;;;;;16.18;62.80;94433.59;5071062;28;20198;-47
2023/05/24 02:21:17;;;;;;;5.53;4.13;;;;;;;16.17;62.87;94432.00;5071379;28;20178;-44
2023/05/24 02:23:44;;;;;;;4.90;4.47;;;;;;;16.15;62.83;94431.34;5071274;28;20268;-44
2023/05/24 02:26:12;;;;;;;5.17;4.67;;;;;;;16.14;62.88;94430.56;5071407;28;20218;-44
2023/05/24 02:28:38;;;;;;;5.37;3.80;;;;;;;16.13;63.16;94430.75;5070470;28;20222;-43
2023/05/24 02:31:05;;;;;;;6.50;4.30;;;;;;;16.12;63.03;94424.78;5071525;28;20178;-45
2023/05/24 02:33:34;;;;;;;6.00;4.37;;;;;;;16.05;63.14;94416.94;5072115;28;20904;-44
2023/05/24 02:36:00;;;;;;;3.97;3.53;;;;;;;16.08;63.28;94420.97;5071161;28;20197;-44
2023/05/24 02:38:27;;;;;;;5.07;4.30;;;;;;;16.07;63.33;94426.31;5070794;28;20731;-44
2023/05/24 02:40:54;;;;;;;6.07;4.10;;;;;;;16.06;63.27;94433.22;5071118;28;20201;-44
2023/05/24 02:43:21;;;;;;;4.80;4.23;;;;;;;16.04;63.45;94433.41;5070226;28;20230;-44
2023/05/24 02:45:47;;;;;;;6.63;4.20;;;;;;;16.02;63.44;94432.81;5071929;28;20244;-44
2023/05/24 02:48:14;;;;;;;5.77;4.17;;;;;;;16.02;63.52;94435.38;5073004;28;20197;-44
2023/05/24 02:50:42;;;;;;;5.07;4.37;;;;;;;16.01;63.50;94431.19;5070841;28;20198;-44
2023/05/24 02:53:09;;;;;;;5.30;4.37;;;;;;;16.01;63.34;94438.91;5070831;28;20277;-45
2023/05/24 02:55:36;;;;;;;6.83;4.73;;;;;;;16.01;63.40;94432.97;5070707;28;20187;-44
2023/05/24 02:58:03;;;;;;;5.47;4.37;;;;;;;16.01;63.46;94436.34;5069624;28;20198;-43
2023/05/24 03:00:30;;;;;;;6.43;4.87;;;;;;;16.01;63.60;94436.34;5070282;28;20915;-44
2023/05/24 03:03:01;;;;;;;5.27;4.77;;;;;;;16.01;63.55;94436.34;5069970;28;20704;-43
2023/05/24 03:05:27;;;;;;;5.63;4.40;;;;;;;16.02;63.57;94444.91;5070110;28;20610;-43
2023/05/24 03:07:57;;;;;;;4.97;4.30;;;;;;;16.03;63.52;94447.28;5070197;28;20194;-45
2023/05/24 03:10:24;;;;;;;4.67;3.93;;;;;;;16.01;63.53;94454.38;5070134;28;20213;-44
2023/05/24 03:12:50;;;;;;;7.00;5.10;;;;;;;16.05;63.74;94457.41;5069868;28;20205;-43
2023/05/24 03:15:17;;;;;;;4.70;4.07;;;;;;;16.08;63.61;94458.88;5069802;28;20240;-44
2023/05/24 03:17:44;;;;;;;4.77;4.27;;;;;;;16.05;63.68;94453.06;5070281;28;20193;-42
2023/05/24 03:20:11;;;;;;;5.23;4.20;;;;;;;16.13;63.64;94457.34;5069661;28;20194;-47
2023/05/24 03:22:39;;;;;;;7.13;4.63;;;;;;;16.16;63.48;94454.41;5070014;28;20226;-44
2023/05/24 03:25:08;;;;;;;5.83;4.40;;;;;;;16.21;63.41;94456.47;5070047;28;20187;-45
2023/05/24 03:27:35;;;;;;;6.63;4.13;;;;;;;16.18;63.58;94446.50;5069006;28;20570;-45
2023/05/24 03:30:05;;;;;;;6.77;4.20;;;;;;;16.29;63.53;94453.78;5069530;28;20652;-45
2023/05/24 03:32:31;;;;;;;4.47;3.87;;;;;;;16.28;63.34;94455.59;5069973;28;20629;-43
2023/05/24 03:35:00;;;;;;;5.37;4.37;;;;;;;16.36;63.16;94457.25;5069184;28;20193;-43
2023/05/24 03:37:27;;;;;;;5.63;4.40;;;;;;;16.42;63.21;94458.34;5071290;28;20187;-45
2023/05/24 03:39:53;;;;;;;5.30;4.07;;;;;;;16.49;63.23;94466.94;5071095;28;20554;-44
2023/05/24 03:42:22;;;;;;;4.70;4.30;;;;;;;16.51;62.85;94463.22;5069358;28;20711;-45
2023/05/24 03:44:48;;;;;;;6.73;4.73;;;;;;;16.62;62.95;94472.25;5070197;28;20220;-45
2023/05/24 03:47:15;;;;;;;6.20;4.73;;;;;;;16.67;62.98;94464.00;5069648;28;20197;-45
2023/05/24 03:49:42;;;;;;;7.57;4.47;;;;;;;16.71;62.72;94460.88;5069743;28;20183;-46
2023/05/24 03:52:09;;;;;;;4.33;4.00;;;;;;;16.79;62.60;94465.94;5069416;28;20657;-45
2023/05/24 03:54:35;;;;;;;4.97;4.27;;;;;;;16.88;62.51;94469.25;5069173;28;20198;-44
2023/05/24 03:57:02;;;;;;;5.00;4.10;;;;;;;16.93;62.40;94461.75;5068776;28;20186;-44
2023/05/24 03:59:31;;;;;;;4.70;4.13;;;;;;;16.86;62.07;94437.63;5069795;28;20190;-44
2023/05/24 04:01:57;;;;;;;6.43;4.87;;;;;;;17.10;62.01;94466.66;5069362;28;20194;-43
2023/05/24 04:04:24;;;;;;;4.97;4.10;;;;;;;17.19;61.71;94470.78;5069992;28;20271;-45
2023/05/24 04:06:52;;;;;;;5.43;3.97;;;;;;;17.25;61.77;94468.22;5070676;28;20194;-46
2023/05/24 04:09:19;;;;;;;8.10;3.93;;;;;;;17.34;61.45;94474.09;5071314;28;20195;-44
2023/05/24 04:11:46;;;;;;;7.50;4.37;;;;;;;17.42;61.37;94473.97;5072895;28;20224;-45
2023/05/24 04:14:13;;;;;;;5.33;4.77;;;;;;;17.51;61.27;94472.84;5073717;28;20186;-46
2023/05/24 04:16:43;;;;;;;5.27;4.63;;;;;;;17.61;60.97;94469.94;5069839;28;20649;-44
2023/05/24 04:19:10;;;;;;;4.70;4.20;;;;;;;17.68;60.82;94477.75;5069171;28;20221;-45
2023/05/24 04:21:38;;;;;;;4.77;4.27;;;;;;;17.77;60.56;94480.06;5069805;28;20252;-44
2023/05/24 04:24:05;;;;;;;5.50;4.30;;;;;;;17.86;60.47;94475.53;5068897;28;20234;-46
2023/05/24 04:26:33;;;;;;;4.30;3.90;;;;;;;17.88;60.18;94467.63;5069333;28;20198;-44
2023/05/24 04:29:00;;;;;;;5.07;3.77;;;;;;;18.01;60.03;94473.69;5068548;28;20561;-44
2023/05/24 04:31:29;;;;;;;9.03;4.63;;;;;;;18.12;59.70;94479.31;5068963;28;20194;-44
2023/05/24 04:33:58;;;;;;;4.83;4.23;;;;;;;18.22;59.48;94479.75;5069186;28;20236;-46
2023/05/24 04:36:25;;;;;;;6.73;4.07;;;;;;;18.13;59.49;94452.44;5069044;28;20201;-45
2023/05/24 04:38:54;;;;;;;5.33;4.07;;;;;;;18.38;59.01;94476.88;5070570;28;20581;-43
2023/05/24 04:41:23;;;;;;;4.93;4.40;;;;;;;18.53;58.92;94490.53;5075099;28;20675;-45
2023/05/24 04:43:49;;;;;;;6.43;4.17;;;;;;;18.63;58.92;94489.38;5072713;28;20226;-45
2023/05/24 04:46:16;;;;;;;9.27;4.63;;;;;;;18.59;58.56;94477.78;5073081;28;20194;-45
2023/05/24 04:48:43;;;;;;;7.30;4.47;;;;;;;18.84;58.52;94501.44;5072772;28;20697;-45
2023/05/24 04:51:11;;;;;;;4.10;3.73;;;;;;;18.90;58.39;94491.09;5072839;28;20277;-44
2023/05/24 04:53:38;;;;;;;8.50;4.63;;;;;;;19.04;58.23;94504.91;5072200;28;20193;-45
2023/05/24 04:56:05;;;;;;;4.70;4.20;;;;;;;19.12;57.95;94493.56;5073201;28;20205;-44
2023/05/24 04:58:32;;;;;;;5.10;4.27;;;;;;;19.25;57.90;94496.19;5072759;28;20228;-44
2023/05/24 05:00:58;;;;;;;5.73;4.57;;;;;;;19.37;57.76;94496.44;5072714;28;20197;-44
2023/05/24 05:03:25;;;;;;;7.20;4.70;;;;;;;19.51;57.54;94501.44;5072413;28;20214;-44
2023/05/24 05:05:52;;;;;;;8.17;4.20;;;;;;;19.75;57.31;94509.69;5072250;28;20244;-44
2023/05/24 05:08:20;;;;;;;10.20;4.60;;;;;;;20.05;57.12;94484.13;5072999;28;20573;-46
2023/05/24 05:10:47;;;;;;;4.67;4.10;;;;;;;20.74;57.02;94499.19;5072427;28;20197;-44
2023/05/24 05:13:14;;;;;;;4.53;3.80;;;;;;;21.53;56.54;94505.84;5071965;28;20668;-45
2023/05/24 05:15:40;;;;;;;6.00;4.63;;;;;;;22.35;55.87;94507.66;5072085;28;20776;-43
2023/05/24 05:18:07;;;;;;;7.47;4.03;;;;;;;23.21;55.05;94507.53;5072093;28;20189;-43
2023/05/24 05:20:34;;;;;;;5.47;4.28;;;;;;;24.17;54.08;94508.38;5073578;28;20232;-45
2023/05/24 05:23:01;;;;;;;6.47;4.30;;;;;;;25.14;53.28;94505.25;5073575;28;20634;-46
2023/05/24 05:25:29;;;;;;;4.30;3.75;;;;;;;26.14;51.90;94524.81;5071313;28;20186;-45
2023/05/24 05:27:56;;;;;;;5.45;4.53;;;;;;;27.12;51.21;94525.19;5072297;28;20229;-45
2023/05/24 05:30:23;;;;;;;6.07;4.20;;;;;;;28.04;49.88;94506.94;5072224;28;20194;-47
2023/05/24 05:32:50;;;;;;;5.22;3.75;;;;;;;28.99;48.44;94510.47;5071763;28;20194;-44
2023/05/24 05:35:16;;;;;;;6.07;3.67;;;;;;;29.98;47.61;94522.59;5071910;28;20190;-44
2023/05/24 05:37:43;;;;;;;7.47;4.05;;;;;;;30.87;46.20;94525.72;5069767;28;20205;-43
2023/05/24 05:40:11;;;;;;;5.22;3.88;;;;;;;31.75;45.31;94528.78;5060706;28;20669;-42
2023/05/24 05:42:39;;;;;;;4.35;3.67;;;;;;;32.59;44.49;94522.31;5055477;28;20186;-45
2023/05/24 05:45:07;;;;;;;5.50;3.60;;;;;;;33.39;43.26;94527.00;5071627;28;20567;-44
2023/05/24 05:47:34;;;;;;;4.00;3.60;;;;;;;34.17;42.24;94527.53;5071410;28;20203;-46
2023/05/24 05:50:01;;;;;;;8.23;3.95;;;;;;;34.90;41.56;94534.78;5071702;28;20193;-46
2023/05/24 05:52:28;;;;;;;6.60;4.28;;;;;;;35.54;40.81;94524.28;5069762;28;20179;-42
2023/05/24 05:54:55;;;;;;;4.95;2.65;;;;;;;35.96;39.28;94532.09;5073012;28;20198;-44
2023/05/24 05:57:23;;;;;;;30.70;3.33;;;;;;;35.75;38.60;94535.22;5071707;28;20611;-45
2023/05/24 05:59:51;;;;;;;4.93;2.67;;;;;;;35.38;38.42;94537.06;5071980;28;20194;-44
2023/05/24 06:02:19;;;;;;;8.93;3.05;;;;;;;34.92;38.99;94511.34;5071895;28;20213;-45
2023/05/24 06:04:45;;;;;;;11.18;3.00;;;;;;;34.86;39.29;94543.66;5072054;28;20267;-46
2023/05/24 06:07:12;;;;;;;6.35;2.83;;;;;;;34.57;39.52;94528.75;5071401;28;20205;-46
2023/05/24 06:09:39;;;;;;;5.85;2.85;;;;;;;34.49;39.36;94540.03;5072146;28;20214;-45
2023/05/24 06:12:06;;;;;;;8.82;3.35;;;;;;;34.38;39.57;94544.72;5071447;28;20175;-45
2023/05/24 06:14:33;;;;;;;4.50;3.25;;;;;;;34.29;39.98;94549.13;5071797;28;20258;-42
2023/05/24 06:17:01;;;;;;;7.68;3.28;;;;;;;34.19;40.09;94550.03;5071074;28;20186;-44
2023/05/24 06:19:28;;;;;;;10.02;3.83;;;;;;;34.19;40.23;94549.25;5071273;28;20187;-45
2023/05/24 06:21:55;;;;;;;8.15;3.50;;;;;;;34.19;40.43;94549.25;5070809;28;20213;-47
2023/05/24 06:24:22;;;;;;;6.75;4.03;;;;;;;34.19;40.66;94544.75;5070719;28;20206;-45
2023/05/24 06:26:50;;;;;;;3.95;3.13;;;;;;;34.19;40.61;94539.44;5070838;28;20634;-44
2023/05/24 06:29:19;;;;;;;7.22;3.15;;;;;;;34.23;40.68;94541.50;5070687;28;20190;-45
2023/05/24 06:31:46;;;;;;;7.13;3.17;;;;;;;34.26;40.73;94541.72;5049199;28;20674;-47
2023/05/24 06:34:15;;;;;;;6.47;3.63;;;;;;;34.29;40.66;94540.38;5057645;28;20270;-45
2023/05/24 06:36:42;;;;;;;8.65;3.75;;;;;;;34.31;40.89;94533.66;5068646;28;20198;-46
2023/05/24 06:39:09;;;;;;;5.97;3.25;;;;;;;34.39;40.73;94540.19;5067407;28;20886;-46
2023/05/24 06:41:37;;;;;;;10.52;3.72;;;;;;;34.42;40.70;94535.09;5068479;28;20194;-46
2023/05/24 06:44:04;;;;;;;5.38;3.17;;;;;;;34.41;40.40;94533.53;5068256;28;20280;-43
2023/05/24 06:46:31;;;;;;;12.13;4.80;;;;;;;34.39;40.20;94537.53;5067834;28;20182;-46
2023/05/24 06:48:58;;;;;;;14.30;4.53;;;;;;;34.31;40.36;94524.91;5068150;28;20680;-46
2023/05/24 06:51:26;;;;;;;12.73;3.47;;;;;;;34.38;40.35;94539.41;5068815;28;20316;-45
2023/05/24 06:53:53;;;;;;;9.18;3.92;;;;;;;34.38;40.23;94536.75;5068195;28;20189;-45
2023/05/24 06:56:20;;;;;;;15.55;4.10;;;;;;;34.36;40.26;94536.25;5068010;28;20247;-46
2023/05/24 06:58:47;;;;;;;16.40;5.95;;;;;;;34.35;40.08;94526.69;5068156;28;20196;-46
2023/05/24 07:01:15;;;;;;;17.10;4.38;;;;;;;34.40;40.20;94536.44;5068335;28;20217;-45
2023/05/24 07:03:42;;;;;;;12.95;4.57;;;;;;;34.37;39.33;94524.56;5067758;28;20218;-45
2023/05/24 07:06:12;;;;;;;23.23;4.55;;;;;;;34.41;39.15;94530.88;5067748;28;20201;-44
2023/05/24 07:08:41;;;;;;;8.63;4.53;;;;;;;34.40;38.52;94533.78;5068192;28;20677;-45
2023/05/24 07:11:08;;;;;;;6.85;4.28;;;;;;;34.49;38.27;94529.41;5067644;28;20190;-44
2023/05/24 07:13:36;;;;;;;7.47;4.10;;;;;;;34.95;38.02;94531.25;5064354;28;20217;-47
2023/05/24 07:16:03;;;;;;;12.30;4.30;;;;;;;35.61;37.47;94537.94;5068757;28;20508;-46
2023/05/24 07:18:30;;;;;;;7.90;4.15;;;;;;;36.31;37.01;94533.16;5070112;28;20279;-45
2023/05/24 07:20:57;;;;;;;5.30;3.20;;;;;;;37.00;36.48;94533.56;5069835;28;20197;-45
2023/05/24 07:23:24;;;;;;;4.82;4.00;;;;;;;37.65;35.80;94538.16;5070007;28;20186;-44
2023/05/24 07:25:52;;;;;;;4.93;3.58;;;;;;;38.28;35.53;94540.53;5069750;28;20689;-45
2023/05/24 07:28:19;;;;;;;6.20;3.60;;;;;;;38.87;35.09;94543.41;5069817;28;20351;-48
2023/05/24 07:30:46;;;;;;;4.55;3.63;;;;;;;39.43;34.37;94540.66;5070270;28;20277;-45
2023/05/24 07:33:13;;;;;;;8.15;3.83;;;;;;;39.95;34.38;94545.69;5069996;28;20286;-44
2023/05/24 07:35:40;;;;;;;7.20;3.83;;;;;;;40.43;33.94;94552.38;5070052;28;20197;-44
2023/05/24 07:38:07;;;;;;;4.53;3.50;;;;;;;40.85;33.30;94548.47;5069941;28;20293;-45
2023/05/24 07:40:34;;;;;;;5.75;3.28;;;;;;;41.22;33.21;94551.19;5069749;28;20343;-46
2023/05/24 07:43:02;;;;;;;5.00;3.30;;;;;;;41.57;33.00;94546.16;5069627;28;20190;-46
2023/05/24 07:45:30;;;;;;;8.68;3.70;;;;;;;41.87;32.45;94545.13;5069742;28;20283;-46
2023/05/24 07:47:56;;;;;;;4.95;3.75;;;;;;;42.14;32.61;94541.66;5069551;28;20205;-47
2023/05/24 07:50:23;;;;;;;5.60;3.90;;;;;;;42.39;32.49;94547.72;5069749;28;20186;-44
2023/05/24 07:52:50;;;;;;;5.15;3.65;;;;;;;42.65;32.01;94549.19;5069718;28;20197;-45
2023/05/24 07:55:17;;;;;;;3.92;3.38;;;;;;;42.87;31.53;94547.81;5070654;28;20197;-46
2023/05/24 07:57:44;;;;;;;8.40;3.13;;;;;;;42.99;31.34;94528.91;5070804;28;20216;-46
2023/05/24 08:00:14;;;;;;;6.68;3.55;;;;;;;43.15;31.02;94537.00;5069858;28;20189;-49
2023/05/24 08:02:41;;;;;;;7.28;3.30;;;;;;;43.22;31.39;94532.53;5069552;28;20186;-46
2023/05/24 08:05:10;;;;;;;7.45;3.22;;;;;;;43.38;30.91;94540.59;5069566;28;20218;-46
2023/05/24 08:07:37;;;;;;;4.18;3.30;;;;;;;43.40;30.82;94532.16;5069457;28;20201;-46
2023/05/24 08:10:05;;;;;;;4.85;3.45;;;;;;;43.48;30.54;94539.28;5069740;28;20226;-46
2023/05/24 08:12:32;;;;;;;5.53;3.50;;;;;;;43.49;30.71;94530.09;5069386;28;20575;-46
2023/05/24 08:14:59;;;;;;;5.40;3.45;;;;;;;43.55;30.85;94537.53;5069068;28;20687;-46
2023/05/24 08:17:28;;;;;;;4.20;3.15;;;;;;;43.55;30.83;94534.06;5069372;28;20713;-45
2023/05/24 08:19:55;;;;;;;5.03;3.42;;;;;;;43.55;30.65;94534.84;5069402;28;20186;-46
2023/05/24 08:22:22;;;;;;;5.07;3.30;;;;;;;43.52;30.81;94535.56;5069484;28;20197;-46
2023/05/24 08:24:48;;;;;;;5.68;3.40;;;;;;;43.49;30.72;94530.88;5069004;28;20209;-48
2023/05/24 08:27:15;;;;;;;4.88;3.40;;;;;;;43.46;30.19;94531.59;5069450;28;20232;-45
2023/05/24 08:29:42;;;;;;;4.82;3.22;;;;;;;43.42;30.30;94525.31;5069455;28;20296;-45
2023/05/24 08:32:09;;;;;;;5.13;3.47;;;;;;;43.36;30.04;94526.72;5069357;28;20190;-45
2023/05/24 08:34:37;;;;;;;4.60;3.08;;;;;;;43.29;30.46;94534.63;5069372;28;20228;-45
2023/05/24 08:37:04;;;;;;;3.78;3.42;;;;;;;43.23;30.14;94527.97;5069410;28;20190;-47
2023/05/24 08:39:31;;;;;;;5.43;3.05;;;;;;;43.13;30.16;94525.78;5071781;28;20625;-45
2023/05/24 08:41:59;;;;;;;3.25;3.00;;;;;;;43.03;30.26;94527.84;5069706;28;20532;-45
2023/05/24 08:44:26;;;;;;;4.45;3.40;;;;;;;42.89;30.25;94526.75;5069643;28;20255;-44
2023/05/24 08:46:54;;;;;;;4.65;3.60;;;;;;;42.74;30.08;94531.75;5069308;28;20205;-46
2023/05/24 08:49:21;;;;;;;4.85;3.45;;;;;;;42.58;30.34;94528.25;5069914;28;20194;-46
2023/05/24 08:51:51;;;;;;;5.43;3.00;;;;;;;42.43;30.25;94529.00;5072372;28;20186;-47
2023/05/24 08:54:20;;;;;;;5.47;3.38;;;;;;;42.28;30.48;94525.19;5070995;28;20689;-48
2023/05/24 08:56:47;;;;;;;4.60;3.58;;;;;;;42.12;30.28;94529.69;5071788;28;20289;-47
2023/05/24 08:59:16;;;;;;;3.38;2.78;;;;;;;41.93;30.30;94527.63;5072396;28;20259;-50
2023/05/24 09:01:47;;;;;;;2.92;2.63;;;;;;;41.72;29.86;94523.19;5071580;28;20198;-45
2023/05/24 09:04:14;;;;;;;4.18;3.13;;;;;;;41.41;29.87;94512.28;5069460;28;20363;-47
2023/05/24 09:06:41;;;;;;;3.80;3.22;;;;;;;41.25;30.81;94521.00;5069125;28;20185;-46
2023/05/24 09:09:10;;;;;;;3.67;3.08;;;;;;;41.01;30.60;94521.00;5073368;28;20216;-45
2023/05/24 09:11:39;;;;;;;4.40;2.72;;;;;;;40.79;30.86;94530.22;5074762;28;20194;-45
2023/05/24 09:14:06;;;;;;;3.28;2.78;;;;;;;40.56;31.02;94519.16;5071635;28;20196;-45
2023/05/24 09:16:33;;;;;;;3.10;2.80;;;;;;;40.25;31.12;94512.34;5069379;28;20549;-46
2023/05/24 09:19:00;;;;;;;6.00;3.00;;;;;;;40.11;30.98;94515.31;5069014;28;20271;-46
2023/05/24 09:21:28;;;;;;;3.50;3.20;;;;;;;39.88;30.95;94525.53;5069009;28;20198;-46
2023/05/24 09:23:55;;;;;;;3.08;2.88;;;;;;;39.68;31.07;94520.19;5068896;28;20194;-46
2023/05/24 09:26:25;;;;;;;3.17;2.88;;;;;;;39.47;31.11;94518.28;5069715;28;20202;-47
2023/05/24 09:28:54;;;;;;;4.97;3.20;;;;;;;39.20;30.76;94503.44;5072914;28;20226;-46
2023/05/24 09:31:32;;;;;;;4.00;2.60;;;;;;;39.03;30.93;94512.34;5072455;28;20204;-46
2023/05/24 09:33:59;;;;;;;3.47;2.90;;;;;;;38.81;31.09;94507.25;5072435;28;20297;-46
2023/05/24 09:36:29;;;;;;;3.70;3.20;;;;;;;38.58;31.26;94510.13;5072096;28;20186;-45
2023/05/24 09:39:08;;;;;;;3.00;2.70;;;;;;;38.38;31.25;94508.13;5072348;28;20273;-46
2023/05/24 09:41:36;;;;;;;4.93;2.80;;;;;;;38.14;31.42;94512.09;5072029;28;20186;-47
2023/05/24 09:44:03;;;;;;;3.28;2.97;;;;;;;37.93;31.36;94508.50;5071913;28;20206;-46
2023/05/24 09:46:37;;;;;;;2.70;2.50;;;;;;;37.69;31.47;94514.28;5072008;28;20179;-45
2023/05/24 09:49:05;;;;;;;3.78;2.95;;;;;;;37.45;31.37;94506.72;5072474;28;20186;-45
2023/05/24 09:51:36;;;;;;;4.35;3.60;;;;;;;37.23;31.40;94510.28;5071898;28;20657;-45
2023/05/24 09:54:03;;;;;;;2.70;2.50;;;;;;;37.01;31.47;94497.03;5072061;28;20191;-45
2023/05/24 09:56:33;;;;;;;6.85;2.97;;;;;;;36.81;31.55;94501.00;5072138;28;20252;-46
2023/05/24 09:59:06;;;;;;;3.28;2.83;;;;;;;36.63;31.66;94503.59;5072222;28;20271;-46
2023/05/24 10:01:34;;;;;;;3.33;3.03;;;;;;;36.46;31.64;94495.53;5071754;28;20194;-48
2023/05/24 10:04:05;;;;;;;4.07;2.80;;;;;;;36.29;31.78;94500.72;5072012;28;20285;-45
2023/05/24 10:06:36;;;;;;;5.25;2.95;;;;;;;36.10;31.73;94498.28;5071471;28;20643;-46
2023/05/24 10:09:05;;;;;;;3.72;2.90;;;;;;;35.93;31.65;94496.25;5072013;28;20247;-45
2023/05/24 10:11:32;;;;;;;4.93;2.90;;;;;;;35.67;31.68;94480.09;5071475;28;20707;-45
2023/05/24 10:13:59;;;;;;;3.45;2.83;;;;;;;35.54;31.62;94487.03;5071781;28;20190;-47
2023/05/24 10:16:27;;;;;;;3.33;3.03;;;;;;;35.44;31.89;94493.28;5072053;28;20190;-45
2023/05/24 10:18:55;;;;;;;3.50;3.00;;;;;;;35.29;31.98;94495.50;5071987;28;20193;-46
2023/05/24 10:21:24;;;;;;;2.80;2.60;;;;;;;35.10;31.87;94496.41;5071941;28;20565;-46
2023/05/24 10:23:55;;;;;;;3.72;3.20;;;;;;;34.87;31.95;94492.84;5071485;28;20572;-45
2023/05/24 10:26:25;;;;;;;4.50;2.75;;;;;;;34.77;31.98;94493.06;5071323;28;20225;-44
2023/05/24 10:28:57;;;;;;;3.20;2.90;;;;;;;34.65;31.97;94488.22;5072228;28;20270;-47
2023/05/24 10:31:33;;;;;;;2.72;2.53;;;;;;;34.52;32.11;94483.69;5076180;28;20182;-45
2023/05/24 10:34:02;;;;;;;3.53;3.15;;;;;;;34.41;31.94;94476.94;5071492;28;20205;-47
2023/05/24 10:36:31;;;;;;;4.22;2.72;;;;;;;34.31;32.35;94477.13;5071029;28;20349;-45
2023/05/24 10:38:58;;;;;;;4.05;2.80;;;;;;;34.24;32.24;94471.41;5070340;28;20194;-46
2023/05/24 10:41:26;;;;;;;3.88;2.60;;;;;;;34.14;31.90;94467.06;5071389;28;20196;-46
2023/05/24 10:43:53;;;;;;;5.10;2.70;;;;;;;34.06;31.94;94467.72;5070914;28;20256;-45
2023/05/24 10:46:21;;;;;;;3.33;2.22;;;;;;;33.89;32.31;94455.75;5071354;28;20241;-49
2023/05/24 10:49:01;;;;;;;3.08;2.60;;;;;;;33.85;31.94;94454.78;5070733;28;20195;-47
2023/05/24 10:51:37;;;;;;;4.40;2.95;;;;;;;33.82;32.01;94455.34;5071092;28;20190;-47
2023/05/24 10:54:14;;;;;;;4.35;2.63;;;;;;;33.74;32.10;94453.34;5071288;28;20283;-45
2023/05/24 10:56:42;;;;;;;3.03;2.75;;;;;;;33.65;32.37;94457.72;5074679;28;20198;-45
2023/05/24 10:59:09;;;;;;;3.05;2.75;;;;;;;33.58;32.13;94452.00;5071888;28;20240;-46
2023/05/24 11:01:36;;;;;;;3.85;2.80;;;;;;;33.51;32.07;94448.91;5071224;28;20182;-46
2023/05/24 11:04:11;;;;;;;3.20;2.90;;;;;;;33.41;32.07;94447.94;5070639;28;20195;-47
2023/05/24 11:06:49;;;;;;;2.95;2.75;;;;;;;33.17;32.07;94421.53;5070904;28;20322;-45
2023/05/24 11:09:18;;;;;;;3.92;2.80;;;;;;;33.28;31.96;94442.56;5070700;28;20197;-47
2023/05/24 11:11:47;;;;;;;3.55;2.63;;;;;;;33.23;32.19;94443.44;5070182;28;20178;-46
2023/05/24 11:14:19;;;;;;;4.13;2.65;;;;;;;33.13;32.06;94433.00;5070477;28;20201;-46
2023/05/24 11:16:49;;;;;;;2.72;2.53;;;;;;;33.08;32.33;94439.16;5070329;28;20248;-46
2023/05/24 11:19:19;;;;;;;3.13;2.72;;;;;;;33.01;32.40;94445.84;5070677;28;20222;-46
2023/05/24 11:21:48;;;;;;;3.00;2.70;;;;;;;32.94;32.47;94435.59;5070585;28;20179;-45
2023/05/24 11:24:16;;;;;;;3.88;3.03;;;;;;;32.75;32.40;94416.22;5070233;28;20227;-45
2023/05/24 11:26:44;;;;;;;2.85;2.53;;;;;;;32.80;32.56;94427.53;5070422;28;20330;-45
2023/05/24 11:29:16;;;;;;;2.72;2.45;;;;;;;32.76;32.04;94425.72;5070179;28;20198;-46
2023/05/24 11:31:47;;;;;;;2.72;2.50;;;;;;;32.52;32.21;94396.63;5070325;28;20209;-46
2023/05/24 11:34:14;;;;;;;2.70;2.50;;;;;;;32.66;32.38;94426.66;5070067;28;20197;-45
2023/05/24 11:36:43;;;;;;;3.00;2.72;;;;;;;32.61;32.55;94430.16;5070069;28;20194;-45
2023/05/24 11:39:10;;;;;;;2.88;2.45;;;;;;;32.55;32.24;94418.00;5070180;28;20265;-45